sensor_id;sensor_type;location;lat;lon;timestamp;pressure;altitude;pressure_sealevel;temperature;humidity
8890;BME280;4481;43.406;24.454;2023-03-25T00:01:47;77389.59;;;-144.09;100.00
8890;BME280;4481;43.406;24.454;2023-03-25T00:04:13;77379.13;;;-144.09;100.00
8890;BME280;4481;43.406;24.454;2023-03-25T00:06:42;77379.13;;;-144.09;100.00
8890;BME280;4481;43.406;24.454;2023-03-25T00:09:08;77372.88;;;-144.09;100.00
8890;BME280;4481;43.406;24.454;2023-03-25T00:11:34;77360.34;;;-144.09;100.00
8890;BME280;4481;43.406;24.454;2023-03-25T00:14:01;77366.59;;;-144.09;100.00
8890;BME280;4481;43.406;24.454;2023-03-25T00:16:27;77372.88;;;-144.09;100.00
8890;BME280;4481;43.406;24.454;2023-03-25T00:18:53;77379.13;;;-144.09;100.00
8890;BME280;4481;43.406;24.454;2023-03-25T00:21:20;77368.69;;;-144.09;100.00
8890;BME280;4481;43.406;24.454;2023-03-25T00:23:47;77374.97;;;-144.09;100.00
8890;BME280;4481;43.406;24.454;2023-03-25T00:26:13;77366.59;;;-144.09;100.00
8890;BME280;4481;43.406;24.454;2023-03-25T00:28:40;77368.69;;;-144.09;100.00
8890;BME280;4481;43.406;24.454;2023-03-25T00:31:08;77370.78;;;-144.09;100.00
8890;BME280;4481;43.406;24.454;2023-03-25T00:33:36;77389.59;;;-144.09;100.00
8890;BME280;4481;43.406;24.454;2023-03-25T00:36:03;77393.78;;;-144.09;100.00
8890;BME280;4481;43.406;24.454;2023-03-25T00:38:31;77389.59;;;-144.09;100.00
8890;BME280;4481;43.406;24.454;2023-03-25T00:41:10;77400.03;;;-144.09;100.00
8890;BME280;4481;43.406;24.454;2023-03-25T00:43:37;77408.41;;;-144.09;100.00
8890;BME280;4481;43.406;24.454;2023-03-25T00:46:03;77410.50;;;-144.09;100.00
8890;BME280;4481;43.406;24.454;2023-03-25T00:48:29;77410.50;;;-144.09;100.00
8890;BME280;4481;43.406;24.454;2023-03-25T00:50:56;77406.31;;;-144.09;100.00
8890;BME280;4481;43.406;24.454;2023-03-25T00:53:22;77385.41;;;-144.09;100.00
8890;BME280;4481;43.406;24.454;2023-03-25T00:55:49;77395.88;;;-144.09;100.00
8890;BME280;4481;43.406;24.454;2023-03-25T00:58:15;77383.31;;;-144.09;100.00
8890;BME280;4481;43.406;24.454;2023-03-25T01:00:41;77383.31;;;-144.09;100.00
8890;BME280;4481;43.406;24.454;2023-03-25T01:03:07;77385.41;;;-144.09;100.00
8890;BME280;4481;43.406;24.454;2023-03-25T01:05:34;77391.69;;;-144.09;100.00
8890;BME280;4481;43.406;24.454;2023-03-25T01:08:00;77379.13;;;-144.09;100.00
8890;BME280;4481;43.406;24.454;2023-03-25T01:10:27;77393.78;;;-144.09;100.00
8890;BME280;4481;43.406;24.454;2023-03-25T01:12:53;77393.78;;;-144.09;100.00
8890;BME280;4481;43.406;24.454;2023-03-25T01:15:20;77372.88;;;-144.09;100.00
8890;BME280;4481;43.406;24.454;2023-03-25T01:17:47;77358.25;;;-144.09;100.00
8890;BME280;4481;43.406;24.454;2023-03-25T01:20:13;77374.97;;;-144.09;100.00
8890;BME280;4481;43.406;24.454;2023-03-25T01:22:39;77364.50;;;-144.09;100.00
8890;BME280;4481;43.406;24.454;2023-03-25T01:25:05;77362.41;;;-144.09;100.00
8890;BME280;4481;43.406;24.454;2023-03-25T01:27:32;77360.34;;;-144.09;100.00
8890;BME280;4481;43.406;24.454;2023-03-25T01:29:58;77356.16;;;-144.09;100.00
8890;BME280;4481;43.406;24.454;2023-03-25T01:32:25;77372.88;;;-144.09;100.00
8890;BME280;4481;43.406;24.454;2023-03-25T01:34:51;77383.31;;;-144.09;100.00
8890;BME280;4481;43.406;24.454;2023-03-25T01:37:17;77368.69;;;-144.09;100.00
8890;BME280;4481;43.406;24.454;2023-03-25T01:39:43;77377.06;;;-144.09;100.00
8890;BME280;4481;43.406;24.454;2023-03-25T01:42:09;77397.94;;;-144.09;100.00
8890;BME280;4481;43.406;24.454;2023-03-25T01:45:13;77391.69;;;-144.09;100.00
8890;BME280;4481;43.406;24.454;2023-03-25T01:47:39;77393.78;;;-144.09;100.00
8890;BME280;4481;43.406;24.454;2023-03-25T01:50:06;77414.66;;;-144.09;100.00
8890;BME280;4481;43.406;24.454;2023-03-25T01:52:41;77395.88;;;-144.09;100.00
8890;BME280;4481;43.406;24.454;2023-03-25T01:55:09;77372.88;;;-144.09;100.00
8890;BME280;4481;43.406;24.454;2023-03-25T01:57:37;77368.69;;;-144.09;100.00
8890;BME280;4481;43.406;24.454;2023-03-25T02:00:07;77370.78;;;-144.09;100.00
8890;BME280;4481;43.406;24.454;2023-03-25T02:02:34;77389.59;;;-144.09;100.00
8890;BME280;4481;43.406;24.454;2023-03-25T02:05:06;77351.97;;;-144.09;100.00
8890;BME280;4481;43.406;24.454;2023-03-25T02:07:37;77366.59;;;-144.09;100.00
8890;BME280;4481;43.406;24.454;2023-03-25T02:10:09;77379.13;;;-144.09;100.00
8890;BME280;4481;43.406;24.454;2023-03-25T02:12:36;77360.34;;;-144.09;100.00
8890;BME280;4481;43.406;24.454;2023-03-25T02:15:04;77347.78;;;-144.09;100.00
8890;BME280;4481;43.406;24.454;2023-03-25T02:17:41;77335.25;;;-144.09;100.00
8890;BME280;4481;43.406;24.454;2023-03-25T02:20:28;77347.78;;;-144.09;100.00
8890;BME280;4481;43.406;24.454;2023-03-25T02:26:26;77381.22;;;-144.09;100.00
8890;BME280;4481;43.406;24.454;2023-03-25T02:29:06;77402.13;;;-144.09;100.00
8890;BME280;4481;43.406;24.454;2023-03-25T02:31:45;77402.13;;;-144.09;100.00
8890;BME280;4481;43.406;24.454;2023-03-25T02:34:27;77368.69;;;-144.09;100.00
8890;BME280;4481;43.406;24.454;2023-03-25T02:40:03;77368.69;;;-144.09;100.00
8890;BME280;4481;43.406;24.454;2023-03-25T02:42:33;77364.50;;;-144.09;100.00
8890;BME280;4481;43.406;24.454;2023-03-25T02:45:07;77345.69;;;-144.09;100.00
8890;BME280;4481;43.406;24.454;2023-03-25T02:47:37;77347.78;;;-144.09;100.00
8890;BME280;4481;43.406;24.454;2023-03-25T02:50:09;77339.44;;;-144.09;100.00
8890;BME280;4481;43.406;24.454;2023-03-25T02:52:39;77337.34;;;-144.09;100.00
8890;BME280;4481;43.406;24.454;2023-03-25T02:55:11;77337.34;;;-144.09;100.00
8890;BME280;4481;43.406;24.454;2023-03-25T02:57:43;77335.25;;;-144.09;100.00
8890;BME280;4481;43.406;24.454;2023-03-25T03:00:12;77360.34;;;-144.09;100.00
8890;BME280;4481;43.406;24.454;2023-03-25T03:02:43;77368.69;;;-144.09;100.00
8890;BME280;4481;43.406;24.454;2023-03-25T03:05:24;77372.88;;;-144.09;100.00
8890;BME280;4481;43.406;24.454;2023-03-25T03:07:59;77418.84;;;-144.09;100.00
8890;BME280;4481;43.406;24.454;2023-03-25T03:10:36;77433.47;;;-144.09;100.00
8890;BME280;4481;43.406;24.454;2023-03-25T03:13:13;77427.22;;;-144.09;100.00
8890;BME280;4481;43.406;24.454;2023-03-25T03:15:52;77418.84;;;-144.09;100.00
8890;BME280;4481;43.406;24.454;2023-03-25T03:18:30;77423.03;;;-144.09;100.00
8890;BME280;4481;43.406;24.454;2023-03-25T03:21:08;77443.94;;;-144.09;100.00
8890;BME280;4481;43.406;24.454;2023-03-25T03:23:42;77454.38;;;-144.09;100.00
8890;BME280;4481;43.406;24.454;2023-03-25T03:26:21;77462.75;;;-144.09;100.00
8890;BME280;4481;43.406;24.454;2023-03-25T03:28:55;77456.47;;;-144.09;100.00
8890;BME280;4481;43.406;24.454;2023-03-25T03:31:26;77435.56;;;-144.09;100.00
8890;BME280;4481;43.406;24.454;2023-03-25T03:33:56;77414.66;;;-144.09;100.00
8890;BME280;4481;43.406;24.454;2023-03-25T03:36:28;77416.75;;;-144.09;100.00
8890;BME280;4481;43.406;24.454;2023-03-25T03:39:00;77416.75;;;-144.09;100.00
8890;BME280;4481;43.406;24.454;2023-03-25T03:41:33;77381.22;;;-144.09;100.00
8890;BME280;4481;43.406;24.454;2023-03-25T03:44:01;77387.50;;;-144.09;100.00
8890;BME280;4481;43.406;24.454;2023-03-25T03:46:32;77364.50;;;-144.09;100.00
8890;BME280;4481;43.406;24.454;2023-03-25T03:49:01;77400.03;;;-144.09;100.00
8890;BME280;4481;43.406;24.454;2023-03-25T03:51:33;77414.66;;;-144.09;100.00
8890;BME280;4481;43.406;24.454;2023-03-25T03:54:04;77389.59;;;-144.09;100.00
8890;BME280;4481;43.406;24.454;2023-03-25T03:56:35;77406.31;;;-144.09;100.00
8890;BME280;4481;43.406;24.454;2023-03-25T03:59:11;77389.59;;;-144.09;100.00
8890;BME280;4481;43.406;24.454;2023-03-25T04:01:43;77389.59;;;-144.09;100.00
8890;BME280;4481;43.406;24.454;2023-03-25T04:04:13;77393.78;;;-144.09;100.00
8890;BME280;4481;43.406;24.454;2023-03-25T04:06:43;77387.50;;;-144.09;100.00
8890;BME280;4481;43.406;24.454;2023-03-25T04:09:15;77374.97;;;-144.09;100.00
8890;BME280;4481;43.406;24.454;2023-03-25T04:11:54;77364.50;;;-144.09;100.00
8890;BME280;4481;43.406;24.454;2023-03-25T04:14:22;77366.59;;;-144.09;100.00
8890;BME280;4481;43.406;24.454;2023-03-25T04:16:48;77372.88;;;-144.09;100.00
8890;BME280;4481;43.406;24.454;2023-03-25T04:19:14;77351.97;;;-144.09;100.00
8890;BME280;4481;43.406;24.454;2023-03-25T04:21:42;77343.59;;;-144.09;100.00
8890;BME280;4481;43.406;24.454;2023-03-25T04:24:09;77364.50;;;-144.09;100.00
8890;BME280;4481;43.406;24.454;2023-03-25T04:26:36;77370.78;;;-144.09;100.00
8890;BME280;4481;43.406;24.454;2023-03-25T04:29:03;77374.97;;;-144.09;100.00
8890;BME280;4481;43.406;24.454;2023-03-25T04:31:30;77377.06;;;-144.09;100.00
8890;BME280;4481;43.406;24.454;2023-03-25T04:33:57;77370.78;;;-144.09;100.00
8890;BME280;4481;43.406;24.454;2023-03-25T04:36:23;77368.69;;;-144.09;100.00
8890;BME280;4481;43.406;24.454;2023-03-25T04:38:53;77374.97;;;-144.09;100.00
8890;BME280;4481;43.406;24.454;2023-03-25T04:41:20;77385.41;;;-144.09;100.00
8890;BME280;4481;43.406;24.454;2023-03-25T04:43:46;77379.13;;;-144.09;100.00
8890;BME280;4481;43.406;24.454;2023-03-25T04:46:14;77362.41;;;-144.09;100.00
8890;BME280;4481;43.406;24.454;2023-03-25T04:48:42;77364.50;;;-144.09;100.00
8890;BME280;4481;43.406;24.454;2023-03-25T04:51:10;77372.88;;;-144.09;100.00
8890;BME280;4481;43.406;24.454;2023-03-25T04:53:36;77358.25;;;-144.09;100.00
8890;BME280;4481;43.406;24.454;2023-03-25T04:56:04;77354.06;;;-144.09;100.00
8890;BME280;4481;43.406;24.454;2023-03-25T04:58:31;77337.34;;;-144.09;100.00
8890;BME280;4481;43.406;24.454;2023-03-25T05:00:58;77333.16;;;-144.09;100.00
8890;BME280;4481;43.406;24.454;2023-03-25T05:03:31;77326.88;;;-144.09;100.00
8890;BME280;4481;43.406;24.454;2023-03-25T05:05:57;77303.91;;;-144.09;100.00
8890;BME280;4481;43.406;24.454;2023-03-25T05:08:24;77297.63;;;-144.09;100.00
8890;BME280;4481;43.406;24.454;2023-03-25T05:10:51;77310.16;;;-144.09;100.00
8890;BME280;4481;43.406;24.454;2023-03-25T05:13:17;77287.19;;;-144.09;100.00
8890;BME280;4481;43.406;24.454;2023-03-25T05:15:43;77257.91;;;-144.09;100.00
8890;BME280;4481;43.406;24.454;2023-03-25T05:18:12;77230.75;;;-144.09;100.00
8890;BME280;4481;43.406;24.454;2023-03-25T05:20:40;77226.56;;;-144.09;100.00
8890;BME280;4481;43.406;24.454;2023-03-25T05:23:07;77220.31;;;-144.09;100.00
8890;BME280;4481;43.406;24.454;2023-03-25T05:25:37;77191.03;;;-144.09;100.00
8890;BME280;4481;43.406;24.454;2023-03-25T05:28:03;77180.59;;;-144.09;100.00
8890;BME280;4481;43.406;24.454;2023-03-25T05:30:30;77163.88;;;-144.09;100.00
8890;BME280;4481;43.406;24.454;2023-03-25T05:32:57;77145.06;;;-144.09;100.00
8890;BME280;4481;43.406;24.454;2023-03-25T05:35:24;77124.16;;;-144.09;100.00
8890;BME280;4481;43.406;24.454;2023-03-25T05:37:52;77094.91;;;-144.09;100.00
8890;BME280;4481;43.406;24.454;2023-03-25T05:40:18;77069.81;;;-144.09;100.00
8890;BME280;4481;43.406;24.454;2023-03-25T05:42:44;77053.09;;;-144.09;100.00
8890;BME280;4481;43.406;24.454;2023-03-25T05:45:13;77025.94;;;-144.09;100.00
8890;BME280;4481;43.406;24.454;2023-03-25T05:47:41;76990.41;;;-144.09;100.00
8890;BME280;4481;43.406;24.454;2023-03-25T05:50:08;76961.16;;;-144.09;100.00
8890;BME280;4481;43.406;24.454;2023-03-25T05:52:35;76929.81;;;-144.09;100.00
8890;BME280;4481;43.406;24.454;2023-03-25T05:55:03;76898.47;;;-144.09;100.00
8890;BME280;4481;43.406;24.454;2023-03-25T05:57:29;76881.75;;;-144.09;100.00
8890;BME280;4481;43.406;24.454;2023-03-25T05:59:55;76856.66;;;-144.09;100.00
8890;BME280;4481;43.406;24.454;2023-03-25T06:02:21;76852.47;;;-144.09;100.00
8890;BME280;4481;43.406;24.454;2023-03-25T06:04:48;76825.31;;;-144.09;100.00
8890;BME280;4481;43.406;24.454;2023-03-25T06:07:15;76804.44;;;-144.09;99.95
8890;BME280;4481;43.406;24.454;2023-03-25T06:09:44;76793.97;;;-144.09;99.61
8890;BME280;4481;43.406;24.454;2023-03-25T06:12:12;76789.78;;;-144.09;99.69
8890;BME280;4481;43.406;24.454;2023-03-25T06:14:39;76760.53;;;-144.09;98.92
8890;BME280;4481;43.406;24.454;2023-03-25T06:17:08;76748.00;;;-144.09;98.38
8890;BME280;4481;43.406;24.454;2023-03-25T06:19:35;76745.91;;;-144.09;98.53
8890;BME280;4481;43.406;24.454;2023-03-25T06:22:03;76727.09;;;-144.09;98.24
8890;BME280;4481;43.406;24.454;2023-03-25T06:24:30;76714.56;;;-144.09;97.84
8890;BME280;4481;43.406;24.454;2023-03-25T06:26:56;76676.94;;;-144.09;96.96
8890;BME280;4481;43.406;24.454;2023-03-25T06:29:23;76641.44;;;-144.09;96.74
8890;BME280;4481;43.406;24.454;2023-03-25T06:31:49;76633.06;;;-144.09;95.84
8890;BME280;4481;43.406;24.454;2023-03-25T06:34:15;76612.19;;;-144.09;95.29
8890;BME280;4481;43.406;24.454;2023-03-25T06:36:42;76595.47;;;-144.09;95.31
8890;BME280;4481;43.406;24.454;2023-03-25T06:39:08;76553.66;;;-144.09;93.77
8890;BME280;4481;43.406;24.454;2023-03-25T06:41:34;76545.31;;;-144.09;93.87
8890;BME280;4481;43.406;24.454;2023-03-25T06:44:02;76501.44;;;-144.09;93.23
8890;BME280;4481;43.406;24.454;2023-03-25T06:46:30;76497.25;;;-144.09;91.79
8890;BME280;4481;43.406;24.454;2023-03-25T06:48:56;76493.06;;;-144.09;91.37
8890;BME280;4481;43.406;24.454;2023-03-25T06:51:22;76465.91;;;-144.09;90.40
8890;BME280;4481;43.406;24.454;2023-03-25T06:53:48;76417.84;;;-144.09;89.79
8890;BME280;4481;43.406;24.454;2023-03-25T06:56:14;76411.56;;;-144.09;89.21
8890;BME280;4481;43.406;24.454;2023-03-25T06:58:40;76386.50;;;-144.09;88.39
8890;BME280;4481;43.406;24.454;2023-03-25T07:01:06;76396.94;;;-144.09;88.16
8890;BME280;4481;43.406;24.454;2023-03-25T07:03:34;76386.50;;;-144.09;88.11
8890;BME280;4481;43.406;24.454;2023-03-25T07:06:01;76334.28;;;-144.09;86.74
8890;BME280;4481;43.406;24.454;2023-03-25T07:08:27;76325.91;;;-144.09;86.22
8890;BME280;4481;43.406;24.454;2023-03-25T07:10:59;76334.28;;;-144.09;86.08
8890;BME280;4481;43.406;24.454;2023-03-25T07:13:25;76313.38;;;-144.09;85.92
8890;BME280;4481;43.406;24.454;2023-03-25T07:15:53;76296.66;;;-144.09;85.63
8890;BME280;4481;43.406;24.454;2023-03-25T07:18:20;76263.22;;;-144.09;84.98
8890;BME280;4481;43.406;24.454;2023-03-25T07:20:46;76219.34;;;-144.09;84.37
8890;BME280;4481;43.406;24.454;2023-03-25T07:23:13;76244.44;;;-144.09;83.99
8890;BME280;4481;43.406;24.454;2023-03-25T07:25:39;76236.06;;;-144.09;83.75
8890;BME280;4481;43.406;24.454;2023-03-25T07:28:05;76200.56;;;-144.09;83.09
8890;BME280;4481;43.406;24.454;2023-03-25T07:30:31;76183.84;;;-144.09;82.75
8890;BME280;4481;43.406;24.454;2023-03-25T07:32:57;76171.31;;;-144.09;82.27
8890;BME280;4481;43.406;24.454;2023-03-25T07:35:24;76152.50;;;-144.09;82.01
8890;BME280;4481;43.406;24.454;2023-03-25T07:37:50;76116.97;;;-144.09;81.76
8890;BME280;4481;43.406;24.454;2023-03-25T07:40:17;76094.00;;;-144.09;81.87
8890;BME280;4481;43.406;24.454;2023-03-25T07:42:43;76077.28;;;-144.09;81.86
8890;BME280;4481;43.406;24.454;2023-03-25T07:45:10;76054.31;;;-144.09;82.71
8890;BME280;4481;43.406;24.454;2023-03-25T07:47:37;76029.22;;;-144.09;82.17
8890;BME280;4481;43.406;24.454;2023-03-25T07:50:03;76012.50;;;-144.09;80.41
8890;BME280;4481;43.406;24.454;2023-03-25T07:52:30;75981.19;;;-144.09;79.77
8890;BME280;4481;43.406;24.454;2023-03-25T07:54:56;75989.53;;;-144.09;79.25
8890;BME280;4481;43.406;24.454;2023-03-25T07:57:25;75997.88;;;-144.09;79.50
8890;BME280;4481;43.406;24.454;2023-03-25T07:59:51;75968.63;;;-144.09;78.62
8890;BME280;4481;43.406;24.454;2023-03-25T08:02:17;75970.72;;;-144.09;78.49
8890;BME280;4481;43.406;24.454;2023-03-25T08:04:43;75951.94;;;-144.09;78.82
8890;BME280;4481;43.406;24.454;2023-03-25T08:07:10;75933.13;;;-144.09;77.95
8890;BME280;4481;43.406;24.454;2023-03-25T08:09:37;75916.41;;;-144.09;77.76
8890;BME280;4481;43.406;24.454;2023-03-25T08:12:04;75918.50;;;-144.09;77.06
8890;BME280;4481;43.406;24.454;2023-03-25T08:14:30;75926.84;;;-144.09;77.55
8890;BME280;4481;43.406;24.454;2023-03-25T08:16:56;75937.31;;;-144.09;73.93
8890;BME280;4481;43.406;24.454;2023-03-25T08:19:22;75937.31;;;-144.09;68.17
8890;BME280;4481;43.406;24.454;2023-03-25T08:21:48;75924.78;;;-144.09;67.51
8890;BME280;4481;43.406;24.454;2023-03-25T08:24:15;75924.78;;;-144.09;66.72
8890;BME280;4481;43.406;24.454;2023-03-25T08:26:41;75922.69;;;-144.09;66.90
8890;BME280;4481;43.406;24.454;2023-03-25T08:29:08;75916.41;;;-144.09;66.41
8890;BME280;4481;43.406;24.454;2023-03-25T08:31:35;75895.53;;;-144.09;66.50
8890;BME280;4481;43.406;24.454;2023-03-25T08:34:03;75903.88;;;-144.09;66.42
8890;BME280;4481;43.406;24.454;2023-03-25T08:36:30;75922.69;;;-144.09;67.49
8890;BME280;4481;43.406;24.454;2023-03-25T08:38:56;75908.06;;;-144.09;67.77
8890;BME280;4481;43.406;24.454;2023-03-25T08:41:23;75914.31;;;-144.09;66.97
8890;BME280;4481;43.406;24.454;2023-03-25T08:43:49;75908.06;;;-144.09;67.24
8890;BME280;4481;43.406;24.454;2023-03-25T08:46:16;75908.06;;;-144.09;66.52
8890;BME280;4481;43.406;24.454;2023-03-25T08:48:42;75912.22;;;-144.09;65.78
8890;BME280;4481;43.406;24.454;2023-03-25T08:51:09;75931.03;;;-144.09;65.92
8890;BME280;4481;43.406;24.454;2023-03-25T08:53:35;75966.56;;;-144.09;65.63
8890;BME280;4481;43.406;24.454;2023-03-25T08:56:01;76008.34;;;-144.09;66.27
8890;BME280;4481;43.406;24.454;2023-03-25T08:58:27;76002.06;;;-144.09;64.84
8890;BME280;4481;43.406;24.454;2023-03-25T09:00:55;75993.72;;;-144.09;64.35
8890;BME280;4481;43.406;24.454;2023-03-25T09:03:23;75970.72;;;-144.09;65.05
8890;BME280;4481;43.406;24.454;2023-03-25T09:05:51;75941.47;;;-144.09;65.36
8890;BME280;4481;43.406;24.454;2023-03-25T09:08:18;75908.06;;;-144.09;65.23
8890;BME280;4481;43.406;24.454;2023-03-25T09:10:44;75891.34;;;-144.09;65.32
8890;BME280;4481;43.406;24.454;2023-03-25T09:13:10;75878.81;;;-144.09;64.09
8890;BME280;4481;43.406;24.454;2023-03-25T09:15:36;75872.53;;;-144.09;65.30
8890;BME280;4481;43.406;24.454;2023-03-25T09:18:03;75874.63;;;-144.09;65.05
8890;BME280;4481;43.406;24.454;2023-03-25T09:20:31;75855.81;;;-144.09;64.61
8890;BME280;4481;43.406;24.454;2023-03-25T09:22:58;75834.94;;;-144.09;64.09
8890;BME280;4481;43.406;24.454;2023-03-25T09:25:24;75828.66;;;-144.09;64.50
8890;BME280;4481;43.406;24.454;2023-03-25T09:27:50;75797.34;;;-144.09;64.41
8890;BME280;4481;43.406;24.454;2023-03-25T09:30:17;75814.03;;;-144.09;64.75
8890;BME280;4481;43.406;24.454;2023-03-25T09:32:43;75797.34;;;-144.09;63.67
8890;BME280;4481;43.406;24.454;2023-03-25T09:35:09;75805.69;;;-144.09;63.02
8890;BME280;4481;43.406;24.454;2023-03-25T09:37:36;75820.31;;;-144.09;63.74
8890;BME280;4481;43.406;24.454;2023-03-25T09:40:03;75805.69;;;-144.09;63.20
8890;BME280;4481;43.406;24.454;2023-03-25T09:42:44;75776.44;;;-144.09;61.84
8890;BME280;4481;43.406;24.454;2023-03-25T09:45:27;75763.91;;;-144.09;61.26
8890;BME280;4481;43.406;24.454;2023-03-25T09:47:58;75745.09;;;-144.09;60.26
8890;BME280;4481;43.406;24.454;2023-03-25T09:50:27;75745.09;;;-144.09;60.41
8890;BME280;4481;43.406;24.454;2023-03-25T09:52:58;75730.47;;;-144.09;60.14
8890;BME280;4481;43.406;24.454;2023-03-25T09:55:29;75722.13;;;-144.09;60.38
8890;BME280;4481;43.406;24.454;2023-03-25T09:58:01;75711.69;;;-144.09;60.25
8890;BME280;4481;43.406;24.454;2023-03-25T10:00:27;75694.97;;;-144.09;59.94
8890;BME280;4481;43.406;24.454;2023-03-25T10:03:01;75682.44;;;-144.09;60.13
8890;BME280;4481;43.406;24.454;2023-03-25T10:05:49;75674.06;;;-144.09;58.56
8890;BME280;4481;43.406;24.454;2023-03-25T10:08:27;75651.09;;;-144.09;59.10
8890;BME280;4481;43.406;24.454;2023-03-25T10:11:02;75640.66;;;-144.09;57.94
8890;BME280;4481;43.406;24.454;2023-03-25T10:13:38;75615.59;;;-144.09;57.23
8890;BME280;4481;43.406;24.454;2023-03-25T10:16:12;75594.69;;;-144.09;56.04
8890;BME280;4481;43.406;24.454;2023-03-25T10:18:49;75559.19;;;-144.09;55.59
8890;BME280;4481;43.406;24.454;2023-03-25T10:21:21;75552.91;;;-144.09;55.80
8890;BME280;4481;43.406;24.454;2023-03-25T10:23:58;75511.13;;;-144.09;57.23
8890;BME280;4481;43.406;24.454;2023-03-25T10:26:31;75523.66;;;-144.09;53.86
8890;BME280;4481;43.406;24.454;2023-03-25T10:29:04;75502.78;;;-144.09;53.59
8890;BME280;4481;43.406;24.454;2023-03-25T10:31:35;75458.91;;;-144.09;53.63
8890;BME280;4481;43.406;24.454;2023-03-25T10:34:06;75500.69;;;-144.09;53.87
8890;BME280;4481;43.406;24.454;2023-03-25T10:36:39;75509.03;;;-144.09;54.32
8890;BME280;4481;43.406;24.454;2023-03-25T10:39:14;75513.22;;;-144.09;55.27
8890;BME280;4481;43.406;24.454;2023-03-25T10:41:45;75517.41;;;-144.09;56.09
8890;BME280;4481;43.406;24.454;2023-03-25T10:44:12;75521.59;;;-144.09;56.67
8890;BME280;4481;43.406;24.454;2023-03-25T10:46:41;75473.53;;;-144.09;55.89
8890;BME280;4481;43.406;24.454;2023-03-25T10:49:13;75433.84;;;-144.09;56.72
8890;BME280;4481;43.406;24.454;2023-03-25T10:51:41;75417.13;;;-144.09;53.61
8890;BME280;4481;43.406;24.454;2023-03-25T10:54:10;75415.03;;;-144.09;53.61
8890;BME280;4481;43.406;24.454;2023-03-25T10:56:39;75423.41;;;-144.09;52.64
8890;BME280;4481;43.406;24.454;2023-03-25T10:59:14;75410.88;;;-144.09;53.65
8890;BME280;4481;43.406;24.454;2023-03-25T11:01:42;75398.34;;;-144.09;53.91
8890;BME280;4481;43.406;24.454;2023-03-25T11:04:11;75381.63;;;-144.09;54.79
8890;BME280;4481;43.406;24.454;2023-03-25T11:06:40;75373.28;;;-144.09;54.86
8890;BME280;4481;43.406;24.454;2023-03-25T11:09:15;75354.47;;;-144.09;55.58
8890;BME280;4481;43.406;24.454;2023-03-25T11:11:44;75364.91;;;-144.09;53.47
8890;BME280;4481;43.406;24.454;2023-03-25T11:14:13;75394.16;;;-144.09;54.44
8890;BME280;4481;43.406;24.454;2023-03-25T11:16:42;75356.56;;;-144.09;52.13
8890;BME280;4481;43.406;24.454;2023-03-25T11:19:17;75356.56;;;-144.09;51.27
8890;BME280;4481;43.406;24.454;2023-03-25T11:21:45;75335.66;;;-144.09;50.48
8890;BME280;4481;43.406;24.454;2023-03-25T11:24:14;75316.88;;;-144.09;51.46
8890;BME280;4481;43.406;24.454;2023-03-25T11:26:45;75260.47;;;-144.09;51.30
8890;BME280;4481;43.406;24.454;2023-03-25T11:29:15;75243.75;;;-144.09;50.88
8890;BME280;4481;43.406;24.454;2023-03-25T11:31:43;75243.75;;;-144.09;50.80
8890;BME280;4481;43.406;24.454;2023-03-25T11:34:20;75231.22;;;-144.09;50.77
8890;BME280;4481;43.406;24.454;2023-03-25T11:36:51;75247.94;;;-144.09;50.17
8890;BME280;4481;43.406;24.454;2023-03-25T11:39:28;75293.91;;;-144.09;51.19
8890;BME280;4481;43.406;24.454;2023-03-25T11:41:55;75331.50;;;-144.09;51.63
8890;BME280;4481;43.406;24.454;2023-03-25T11:44:24;75335.66;;;-144.09;52.82
8890;BME280;4481;43.406;24.454;2023-03-25T11:46:54;75312.69;;;-144.09;48.81
8890;BME280;4481;43.406;24.454;2023-03-25T11:49:22;75308.53;;;-144.09;49.74
8890;BME280;4481;43.406;24.454;2023-03-25T11:51:50;75316.88;;;-144.09;49.42
8890;BME280;4481;43.406;24.454;2023-03-25T11:54:21;75360.75;;;-144.09;50.25
8890;BME280;4481;43.406;24.454;2023-03-25T11:56:48;75360.75;;;-144.09;50.27
8890;BME280;4481;43.406;24.454;2023-03-25T11:59:22;75339.84;;;-144.09;50.16
8890;BME280;4481;43.406;24.454;2023-03-25T12:01:50;75329.41;;;-144.09;50.94
8890;BME280;4481;43.406;24.454;2023-03-25T12:04:18;75333.59;;;-144.09;50.54
8890;BME280;4481;43.406;24.454;2023-03-25T12:06:54;75358.66;;;-144.09;49.79
8890;BME280;4481;43.406;24.454;2023-03-25T12:09:22;75350.28;;;-144.09;51.36
8890;BME280;4481;43.406;24.454;2023-03-25T12:11:57;75335.66;;;-144.09;51.00
8890;BME280;4481;43.406;24.454;2023-03-25T12:14:34;75327.31;;;-144.09;51.16
8890;BME280;4481;43.406;24.454;2023-03-25T12:17:09;75314.78;;;-144.09;52.50
8890;BME280;4481;43.406;24.454;2023-03-25T12:19:45;75295.97;;;-144.09;51.41
8890;BME280;4481;43.406;24.454;2023-03-25T12:22:24;75308.53;;;-144.09;50.68
8890;BME280;4481;43.406;24.454;2023-03-25T12:25:15;75316.88;;;-144.09;48.75
8890;BME280;4481;43.406;24.454;2023-03-25T12:27:52;75323.13;;;-144.09;48.47
8890;BME280;4481;43.406;24.454;2023-03-25T12:30:39;75331.50;;;-144.09;49.25
8890;BME280;4481;43.406;24.454;2023-03-25T12:33:19;75321.06;;;-144.09;48.98
8890;BME280;4481;43.406;24.454;2023-03-25T12:36:01;75337.75;;;-144.09;48.66
8890;BME280;4481;43.406;24.454;2023-03-25T12:38:37;75321.06;;;-144.09;49.23
8890;BME280;4481;43.406;24.454;2023-03-25T12:41:16;75323.13;;;-144.09;49.53
8890;BME280;4481;43.406;24.454;2023-03-25T12:43:57;75314.78;;;-144.09;50.36
8890;BME280;4481;43.406;24.454;2023-03-25T12:46:42;75310.59;;;-144.09;50.04
8890;BME280;4481;43.406;24.454;2023-03-25T12:49:22;75331.50;;;-144.09;49.92
8890;BME280;4481;43.406;24.454;2023-03-25T12:51:57;75318.97;;;-144.09;49.10
8890;BME280;4481;43.406;24.454;2023-03-25T12:54:39;75331.50;;;-144.09;50.51
8890;BME280;4481;43.406;24.454;2023-03-25T12:57:25;75348.22;;;-144.09;50.54
8890;BME280;4481;43.406;24.454;2023-03-25T13:00:10;75352.38;;;-144.09;51.27
8890;BME280;4481;43.406;24.454;2023-03-25T13:05:39;75360.75;;;-144.09;51.66
8890;BME280;4481;43.406;24.454;2023-03-25T13:08:11;75381.63;;;-144.09;52.62